sensor_id;sensor_type;location;lat;lon;timestamp;P1;durP1;ratioP1;P2;durP2;ratioP2
51298;SDS011;37382;45.192;9.790;2024-01-06T00:01:45;8.65;;;7.80;;
51298;SDS011;37382;45.192;9.790;2024-01-06T00:04:13;8.88;;;8.00;;
51298;SDS011;37382;45.192;9.790;2024-01-06T00:06:40;7.93;;;7.15;;
51298;SDS011;37382;45.192;9.790;2024-01-06T00:09:08;8.75;;;7.55;;
51298;SDS011;37382;45.192;9.790;2024-01-06T00:11:36;8.20;;;7.50;;
51298;SDS011;37382;45.192;9.790;2024-01-06T00:14:04;8.63;;;7.82;;
51298;SDS011;37382;45.192;9.790;2024-01-06T00:16:31;10.15;;;7.47;;
51298;SDS011;37382;45.192;9.790;2024-01-06T00:18:58;8.00;;;7.30;;
51298;SDS011;37382;45.192;9.790;2024-01-06T00:21:27;9.25;;;8.32;;
51298;SDS011;37382;45.192;9.790;2024-01-06T00:23:54;8.93;;;8.13;;
51298;SDS011;37382;45.192;9.790;2024-01-06T00:26:23;7.75;;;7.05;;
51298;SDS011;37382;45.192;9.790;2024-01-06T00:28:53;8.70;;;7.78;;
51298;SDS011;37382;45.192;9.790;2024-01-06T00:31:21;8.75;;;7.90;;
51298;SDS011;37382;45.192;9.790;2024-01-06T00:33:49;9.45;;;8.55;;
51298;SDS011;37382;45.192;9.790;2024-01-06T00:36:16;13.18;;;8.55;;
51298;SDS011;37382;45.192;9.790;2024-01-06T00:38:44;9.07;;;8.15;;
51298;SDS011;37382;45.192;9.790;2024-01-06T00:41:11;9.10;;;8.20;;
51298;SDS011;37382;45.192;9.790;2024-01-06T00:43:39;8.88;;;8.07;;
51298;SDS011;37382;45.192;9.790;2024-01-06T00:46:07;9.07;;;8.20;;
51298;SDS011;37382;45.192;9.790;2024-01-06T00:48:35;8.82;;;8.05;;
51298;SDS011;37382;45.192;9.790;2024-01-06T00:51:02;9.40;;;8.50;;
51298;SDS011;37382;45.192;9.790;2024-01-06T00:53:30;8.75;;;7.88;;
51298;SDS011;37382;45.192;9.790;2024-01-06T00:55:57;7.75;;;7.15;;
51298;SDS011;37382;45.192;9.790;2024-01-06T00:58:25;10.27;;;7.85;;
51298;SDS011;37382;45.192;9.790;2024-01-06T01:00:53;7.40;;;6.75;;
51298;SDS011;37382;45.192;9.790;2024-01-06T01:03:20;9.05;;;6.70;;
51298;SDS011;37382;45.192;9.790;2024-01-06T01:05:48;7.00;;;6.30;;
51298;SDS011;37382;45.192;9.790;2024-01-06T01:08:15;6.35;;;5.75;;
51298;SDS011;37382;45.192;9.790;2024-01-06T01:10:43;6.18;;;5.68;;
51298;SDS011;37382;45.192;9.790;2024-01-06T01:13:12;6.57;;;5.97;;
51298;SDS011;37382;45.192;9.790;2024-01-06T01:15:39;5.57;;;5.10;;
51298;SDS011;37382;45.192;9.790;2024-01-06T01:18:06;6.32;;;5.57;;
51298;SDS011;37382;45.192;9.790;2024-01-06T01:20:34;5.90;;;5.40;;
51298;SDS011;37382;45.192;9.790;2024-01-06T01:23:01;6.25;;;5.65;;
51298;SDS011;37382;45.192;9.790;2024-01-06T01:25:29;6.03;;;5.53;;
51298;SDS011;37382;45.192;9.790;2024-01-06T01:27:56;6.15;;;5.55;;
51298;SDS011;37382;45.192;9.790;2024-01-06T01:30:24;6.22;;;5.43;;
51298;SDS011;37382;45.192;9.790;2024-01-06T01:32:51;6.78;;;4.95;;
51298;SDS011;37382;45.192;9.790;2024-01-06T01:35:19;5.40;;;4.90;;
51298;SDS011;37382;45.192;9.790;2024-01-06T01:37:47;5.90;;;5.30;;
51298;SDS011;37382;45.192;9.790;2024-01-06T01:40:14;5.82;;;5.22;;
51298;SDS011;37382;45.192;9.790;2024-01-06T01:42:42;5.53;;;5.07;;
51298;SDS011;37382;45.192;9.790;2024-01-06T01:45:10;6.10;;;5.53;;
51298;SDS011;37382;45.192;9.790;2024-01-06T01:47:39;5.95;;;5.45;;
51298;SDS011;37382;45.192;9.790;2024-01-06T01:50:07;6.22;;;5.72;;
51298;SDS011;37382;45.192;9.790;2024-01-06T01:52:37;6.07;;;5.55;;
51298;SDS011;37382;45.192;9.790;2024-01-06T01:55:05;6.65;;;6.07;;
51298;SDS011;37382;45.192;9.790;2024-01-06T01:57:32;6.82;;;6.15;;
51298;SDS011;37382;45.192;9.790;2024-01-06T02:00:00;6.78;;;6.18;;
51298;SDS011;37382;45.192;9.790;2024-01-06T02:02:37;6.72;;;6.13;;
51298;SDS011;37382;45.192;9.790;2024-01-06T02:05:05;6.70;;;6.10;;
51298;SDS011;37382;45.192;9.790;2024-01-06T02:07:32;6.90;;;6.30;;
51298;SDS011;37382;45.192;9.790;2024-01-06T02:10:00;7.97;;;7.25;;
51298;SDS011;37382;45.192;9.790;2024-01-06T02:12:27;8.15;;;7.38;;
51298;SDS011;37382;45.192;9.790;2024-01-06T02:14:55;8.43;;;7.72;;
51298;SDS011;37382;45.192;9.790;2024-01-06T02:17:22;8.95;;;7.90;;
51298;SDS011;37382;45.192;9.790;2024-01-06T02:19:49;8.90;;;8.10;;
51298;SDS011;37382;45.192;9.790;2024-01-06T02:22:17;10.68;;;8.65;;
51298;SDS011;37382;45.192;9.790;2024-01-06T02:24:44;9.75;;;8.85;;
51298;SDS011;37382;45.192;9.790;2024-01-06T02:27:12;9.13;;;8.32;;
51298;SDS011;37382;45.192;9.790;2024-01-06T02:29:39;10.32;;;9.32;;
51298;SDS011;37382;45.192;9.790;2024-01-06T02:32:06;9.63;;;8.70;;
51298;SDS011;37382;45.192;9.790;2024-01-06T02:34:34;10.00;;;9.10;;
51298;SDS011;37382;45.192;9.790;2024-01-06T02:37:02;10.25;;;9.25;;
51298;SDS011;37382;45.192;9.790;2024-01-06T02:39:29;10.70;;;9.70;;
51298;SDS011;37382;45.192;9.790;2024-01-06T02:41:57;10.75;;;9.73;;
51298;SDS011;37382;45.192;9.790;2024-01-06T02:44:25;13.27;;;9.40;;
51298;SDS011;37382;45.192;9.790;2024-01-06T02:46:52;11.63;;;10.52;;
51298;SDS011;37382;45.192;9.790;2024-01-06T02:49:21;12.18;;;10.88;;
51298;SDS011;37382;45.192;9.790;2024-01-06T02:51:48;10.98;;;9.98;;
51298;SDS011;37382;45.192;9.790;2024-01-06T02:54:16;12.00;;;10.80;;
51298;SDS011;37382;45.192;9.790;2024-01-06T02:56:43;11.60;;;10.25;;
51298;SDS011;37382;45.192;9.790;2024-01-06T02:59:10;11.30;;;10.25;;
51298;SDS011;37382;45.192;9.790;2024-01-06T03:01:38;10.77;;;9.77;;
51298;SDS011;37382;45.192;9.790;2024-01-06T03:04:05;10.77;;;9.70;;
51298;SDS011;37382;45.192;9.790;2024-01-06T03:06:33;11.40;;;10.18;;
51298;SDS011;37382;45.192;9.790;2024-01-06T03:09:00;11.75;;;10.55;;
51298;SDS011;37382;45.192;9.790;2024-01-06T03:11:28;12.23;;;11.02;;
51298;SDS011;37382;45.192;9.790;2024-01-06T03:13:55;11.27;;;10.20;;
51298;SDS011;37382;45.192;9.790;2024-01-06T03:16:22;10.45;;;9.45;;
51298;SDS011;37382;45.192;9.790;2024-01-06T03:18:50;10.63;;;9.63;;
51298;SDS011;37382;45.192;9.790;2024-01-06T03:21:18;10.32;;;9.32;;
51298;SDS011;37382;45.192;9.790;2024-01-06T03:23:48;10.25;;;9.25;;
51298;SDS011;37382;45.192;9.790;2024-01-06T03:26:16;10.30;;;9.23;;
51298;SDS011;37382;45.192;9.790;2024-01-06T03:28:44;10.38;;;9.38;;
51298;SDS011;37382;45.192;9.790;2024-01-06T03:31:12;9.93;;;9.00;;
51298;SDS011;37382;45.192;9.790;2024-01-06T03:33:39;10.40;;;9.40;;
51298;SDS011;37382;45.192;9.790;2024-01-06T03:36:07;11.32;;;9.88;;
51298;SDS011;37382;45.192;9.790;2024-01-06T03:38:34;11.20;;;10.07;;
51298;SDS011;37382;45.192;9.790;2024-01-06T03:41:02;11.00;;;10.00;;
51298;SDS011;37382;45.192;9.790;2024-01-06T03:43:30;11.23;;;10.15;;
51298;SDS011;37382;45.192;9.790;2024-01-06T03:45:57;12.48;;;11.27;;
51298;SDS011;37382;45.192;9.790;2024-01-06T03:48:27;11.57;;;10.48;;
51298;SDS011;37382;45.192;9.790;2024-01-06T03:50:54;12.35;;;11.25;;
51298;SDS011;37382;45.192;9.790;2024-01-06T03:53:22;13.93;;;11.93;;
51298;SDS011;37382;45.192;9.790;2024-01-06T03:55:53;13.40;;;12.10;;
51298;SDS011;37382;45.192;9.790;2024-01-06T03:58:20;13.13;;;11.73;;
51298;SDS011;37382;45.192;9.790;2024-01-06T04:00:48;13.40;;;12.00;;
51298;SDS011;37382;45.192;9.790;2024-01-06T04:03:15;14.02;;;12.45;;
51298;SDS011;37382;45.192;9.790;2024-01-06T04:05:43;14.10;;;12.70;;
51298;SDS011;37382;45.192;9.790;2024-01-06T04:08:10;13.10;;;11.80;;
51298;SDS011;37382;45.192;9.790;2024-01-06T04:10:38;13.65;;;11.65;;
51298;SDS011;37382;45.192;9.790;2024-01-06T04:13:05;14.18;;;12.77;;
51298;SDS011;37382;45.192;9.790;2024-01-06T04:15:33;14.30;;;12.88;;
51298;SDS011;37382;45.192;9.790;2024-01-06T04:18:04;15.20;;;13.60;;
51298;SDS011;37382;45.192;9.790;2024-01-06T04:20:32;16.10;;;14.40;;
51298;SDS011;37382;45.192;9.790;2024-01-06T04:23:00;16.20;;;14.50;;
51298;SDS011;37382;45.192;9.790;2024-01-06T04:25:27;16.55;;;14.10;;
51298;SDS011;37382;45.192;9.790;2024-01-06T04:27:55;15.38;;;13.73;;
51298;SDS011;37382;45.192;9.790;2024-01-06T04:30:22;15.75;;;14.05;;
51298;SDS011;37382;45.192;9.790;2024-01-06T04:32:52;16.23;;;14.15;;
51298;SDS011;37382;45.192;9.790;2024-01-06T04:35:19;16.67;;;14.93;;
51298;SDS011;37382;45.192;9.790;2024-01-06T04:37:47;15.10;;;13.38;;
51298;SDS011;37382;45.192;9.790;2024-01-06T04:40:14;14.63;;;13.05;;
51298;SDS011;37382;45.192;9.790;2024-01-06T04:42:42;14.65;;;12.65;;
51298;SDS011;37382;45.192;9.790;2024-01-06T04:45:10;15.30;;;13.15;;
51298;SDS011;37382;45.192;9.790;2024-01-06T04:47:37;14.25;;;12.75;;
51298;SDS011;37382;45.192;9.790;2024-01-06T04:50:05;14.30;;;12.80;;
51298;SDS011;37382;45.192;9.790;2024-01-06T04:52:32;14.93;;;12.13;;
51298;SDS011;37382;45.192;9.790;2024-01-06T04:55:00;14.43;;;12.93;;
51298;SDS011;37382;45.192;9.790;2024-01-06T04:57:29;14.07;;;12.65;;
51298;SDS011;37382;45.192;9.790;2024-01-06T04:59:56;13.82;;;12.43;;
51298;SDS011;37382;45.192;9.790;2024-01-06T05:02:23;17.63;;;12.93;;
51298;SDS011;37382;45.192;9.790;2024-01-06T05:04:51;14.40;;;12.73;;
51298;SDS011;37382;45.192;9.790;2024-01-06T05:07:18;14.25;;;12.75;;
51298;SDS011;37382;45.192;9.790;2024-01-06T05:09:46;14.90;;;12.80;;
51298;SDS011;37382;45.192;9.790;2024-01-06T05:12:13;14.68;;;12.80;;
51298;SDS011;37382;45.192;9.790;2024-01-06T05:14:41;15.10;;;12.30;;
51298;SDS011;37382;45.192;9.790;2024-01-06T05:17:08;13.70;;;11.90;;
51298;SDS011;37382;45.192;9.790;2024-01-06T05:19:36;15.07;;;12.32;;
51298;SDS011;37382;45.192;9.790;2024-01-06T05:22:03;14.15;;;12.55;;
51298;SDS011;37382;45.192;9.790;2024-01-06T05:24:31;15.85;;;13.25;;
51298;SDS011;37382;45.192;9.790;2024-01-06T05:26:58;14.45;;;12.93;;
51298;SDS011;37382;45.192;9.790;2024-01-06T05:29:25;13.57;;;12.18;;
51298;SDS011;37382;45.192;9.790;2024-01-06T05:31:53;16.95;;;13.93;;
51298;SDS011;37382;45.192;9.790;2024-01-06T05:34:20;14.80;;;12.52;;
51298;SDS011;37382;45.192;9.790;2024-01-06T05:36:48;13.45;;;12.02;;
51298;SDS011;37382;45.192;9.790;2024-01-06T05:39:15;14.70;;;13.18;;
51298;SDS011;37382;45.192;9.790;2024-01-06T05:41:43;16.33;;;14.60;;
51298;SDS011;37382;45.192;9.790;2024-01-06T05:44:10;15.70;;;13.05;;
51298;SDS011;37382;45.192;9.790;2024-01-06T05:46:38;14.55;;;13.00;;
51298;SDS011;37382;45.192;9.790;2024-01-06T05:49:05;16.50;;;13.13;;
51298;SDS011;37382;45.192;9.790;2024-01-06T05:51:32;15.48;;;13.60;;
51298;SDS011;37382;45.192;9.790;2024-01-06T05:54:00;16.55;;;13.20;;
51298;SDS011;37382;45.192;9.790;2024-01-06T05:56:27;15.40;;;13.38;;
51298;SDS011;37382;45.192;9.790;2024-01-06T05:58:55;17.35;;;13.75;;
51298;SDS011;37382;45.192;9.790;2024-01-06T06:01:24;19.42;;;14.30;;
51298;SDS011;37382;45.192;9.790;2024-01-06T06:03:52;16.45;;;14.45;;
51298;SDS011;37382;45.192;9.790;2024-01-06T06:06:19;17.75;;;13.85;;
51298;SDS011;37382;45.192;9.790;2024-01-06T06:08:47;22.23;;;15.93;;
51298;SDS011;37382;45.192;9.790;2024-01-06T06:11:15;20.23;;;15.13;;
51298;SDS011;37382;45.192;9.790;2024-01-06T06:13:43;18.02;;;14.85;;
51298;SDS011;37382;45.192;9.790;2024-01-06T06:16:11;20.75;;;16.67;;
51298;SDS011;37382;45.192;9.790;2024-01-06T06:18:41;20.60;;;16.63;;
51298;SDS011;37382;45.192;9.790;2024-01-06T06:21:09;19.38;;;16.48;;
51298;SDS011;37382;45.192;9.790;2024-01-06T06:23:36;21.17;;;16.02;;
51298;SDS011;37382;45.192;9.790;2024-01-06T06:26:07;21.45;;;16.35;;
51298;SDS011;37382;45.192;9.790;2024-01-06T06:28:36;18.80;;;16.48;;
51298;SDS011;37382;45.192;9.790;2024-01-06T06:31:03;22.33;;;17.58;;
51298;SDS011;37382;45.192;9.790;2024-01-06T06:33:31;19.10;;;16.55;;
51298;SDS011;37382;45.192;9.790;2024-01-06T06:36:00;24.50;;;18.08;;
51298;SDS011;37382;45.192;9.790;2024-01-06T06:38:29;25.08;;;17.73;;
51298;SDS011;37382;45.192;9.790;2024-01-06T06:40:56;22.40;;;17.23;;
51298;SDS011;37382;45.192;9.790;2024-01-06T06:43:24;24.27;;;18.27;;
51298;SDS011;37382;45.192;9.790;2024-01-06T06:45:51;20.58;;;17.13;;
51298;SDS011;37382;45.192;9.790;2024-01-06T06:48:19;22.50;;;18.35;;
51298;SDS011;37382;45.192;9.790;2024-01-06T06:50:46;22.27;;;17.65;;
51298;SDS011;37382;45.192;9.790;2024-01-06T06:53:13;21.70;;;18.00;;
51298;SDS011;37382;45.192;9.790;2024-01-06T06:55:41;22.73;;;18.70;;
51298;SDS011;37382;45.192;9.790;2024-01-06T06:58:08;24.30;;;18.77;;
51298;SDS011;37382;45.192;9.790;2024-01-06T07:00:36;25.15;;;20.08;;
51298;SDS011;37382;45.192;9.790;2024-01-06T07:03:05;32.22;;;23.92;;
51298;SDS011;37382;45.192;9.790;2024-01-06T07:05:32;36.55;;;25.45;;
51298;SDS011;37382;45.192;9.790;2024-01-06T07:08:00;45.55;;;28.38;;
51298;SDS011;37382;45.192;9.790;2024-01-06T07:10:28;31.67;;;22.42;;
51298;SDS011;37382;45.192;9.790;2024-01-06T07:12:55;29.48;;;21.10;;
51298;SDS011;37382;45.192;9.790;2024-01-06T07:15:23;24.98;;;19.15;;
51298;SDS011;37382;45.192;9.790;2024-01-06T07:17:50;26.08;;;21.60;;
51298;SDS011;37382;45.192;9.790;2024-01-06T07:20:18;25.98;;;18.70;;
51298;SDS011;37382;45.192;9.790;2024-01-06T07:22:46;23.67;;;18.70;;
51298;SDS011;37382;45.192;9.790;2024-01-06T07:25:14;25.92;;;19.02;;
51298;SDS011;37382;45.192;9.790;2024-01-06T07:27:41;29.48;;;22.65;;
51298;SDS011;37382;45.192;9.790;2024-01-06T07:30:09;27.85;;;21.15;;
51298;SDS011;37382;45.192;9.790;2024-01-06T07:32:37;24.20;;;19.65;;
51298;SDS011;37382;45.192;9.790;2024-01-06T07:35:04;23.73;;;18.30;;
51298;SDS011;37382;45.192;9.790;2024-01-06T07:37:34;24.05;;;17.85;;
51298;SDS011;37382;45.192;9.790;2024-01-06T07:40:01;22.80;;;19.52;;
51298;SDS011;37382;45.192;9.790;2024-01-06T07:42:29;24.98;;;18.60;;
51298;SDS011;37382;45.192;9.790;2024-01-06T07:44:56;23.77;;;19.80;;
51298;SDS011;37382;45.192;9.790;2024-01-06T07:47:24;25.35;;;21.02;;
51298;SDS011;37382;45.192;9.790;2024-01-06T07:49:52;24.55;;;19.50;;
51298;SDS011;37382;45.192;9.790;2024-01-06T07:52:20;26.02;;;20.23;;
51298;SDS011;37382;45.192;9.790;2024-01-06T07:54:47;41.05;;;26.90;;
51298;SDS011;37382;45.192;9.790;2024-01-06T07:57:16;28.30;;;22.17;;
51298;SDS011;37382;45.192;9.790;2024-01-06T07:59:43;25.05;;;20.58;;
51298;SDS011;37382;45.192;9.790;2024-01-06T08:02:12;26.38;;;21.35;;
51298;SDS011;37382;45.192;9.790;2024-01-06T08:04:39;28.00;;;22.30;;
51298;SDS011;37382;45.192;9.790;2024-01-06T08:07:06;31.73;;;23.10;;
51298;SDS011;37382;45.192;9.790;2024-01-06T08:09:34;29.77;;;23.42;;
51298;SDS011;37382;45.192;9.790;2024-01-06T08:12:03;27.98;;;23.08;;
51298;SDS011;37382;45.192;9.790;2024-01-06T08:14:31;29.30;;;23.23;;
51298;SDS011;37382;45.192;9.790;2024-01-06T08:16:59;27.48;;;22.80;;
51298;SDS011;37382;45.192;9.790;2024-01-06T08:19:26;28.85;;;22.73;;
51298;SDS011;37382;45.192;9.790;2024-01-06T08:21:55;26.42;;;21.13;;
51298;SDS011;37382;45.192;9.790;2024-01-06T08:24:23;27.98;;;21.55;;
51298;SDS011;37382;45.192;9.790;2024-01-06T08:26:51;30.00;;;21.88;;
51298;SDS011;37382;45.192;9.790;2024-01-06T08:29:19;30.02;;;22.65;;
51298;SDS011;37382;45.192;9.790;2024-01-06T08:31:47;27.67;;;21.92;;
51298;SDS011;37382;45.192;9.790;2024-01-06T08:34:14;28.23;;;21.80;;
51298;SDS011;37382;45.192;9.790;2024-01-06T08:36:42;26.58;;;21.48;;
51298;SDS011;37382;45.192;9.790;2024-01-06T08:39:10;26.30;;;20.80;;
51298;SDS011;37382;45.192;9.790;2024-01-06T08:41:38;23.20;;;19.27;;
51298;SDS011;37382;45.192;9.790;2024-01-06T08:44:06;27.83;;;20.98;;
51298;SDS011;37382;45.192;9.790;2024-01-06T08:46:33;28.83;;;21.05;;
51298;SDS011;37382;45.192;9.790;2024-01-06T08:49:01;27.60;;;19.70;;
51298;SDS011;37382;45.192;9.790;2024-01-06T08:51:28;28.88;;;21.67;;
51298;SDS011;37382;45.192;9.790;2024-01-06T08:53:57;25.88;;;20.65;;
51298;SDS011;37382;45.192;9.790;2024-01-06T08:56:25;24.45;;;19.52;;
51298;SDS011;37382;45.192;9.790;2024-01-06T08:58:53;33.75;;;23.65;;
51298;SDS011;37382;45.192;9.790;2024-01-06T09:01:20;29.50;;;22.17;;
51298;SDS011;37382;45.192;9.790;2024-01-06T09:03:48;32.20;;;21.70;;
51298;SDS011;37382;45.192;9.790;2024-01-06T09:06:17;31.77;;;22.33;;
51298;SDS011;37382;45.192;9.790;2024-01-06T09:08:45;34.40;;;21.95;;
51298;SDS011;37382;45.192;9.790;2024-01-06T09:11:12;36.17;;;25.13;;
51298;SDS011;37382;45.192;9.790;2024-01-06T09:13:40;27.45;;;21.63;;
51298;SDS011;37382;45.192;9.790;2024-01-06T09:16:07;41.05;;;28.58;;
51298;SDS011;37382;45.192;9.790;2024-01-06T09:18:35;34.70;;;25.15;;
51298;SDS011;37382;45.192;9.790;2024-01-06T09:21:03;23.50;;;18.55;;
51298;SDS011;37382;45.192;9.790;2024-01-06T09:23:30;26.73;;;19.40;;
51298;SDS011;37382;45.192;9.790;2024-01-06T09:25:59;42.13;;;26.55;;
51298;SDS011;37382;45.192;9.790;2024-01-06T09:28:26;33.63;;;23.83;;
51298;SDS011;37382;45.192;9.790;2024-01-06T09:30:54;46.08;;;28.80;;
51298;SDS011;37382;45.192;9.790;2024-01-06T09:33:23;43.80;;;29.27;;
51298;SDS011;37382;45.192;9.790;2024-01-06T09:35:50;34.65;;;27.17;;
51298;SDS011;37382;45.192;9.790;2024-01-06T09:38:18;30.10;;;24.20;;
51298;SDS011;37382;45.192;9.790;2024-01-06T09:40:46;48.53;;;36.70;;
51298;SDS011;37382;45.192;9.790;2024-01-06T09:43:15;41.85;;;32.25;;
51298;SDS011;37382;45.192;9.790;2024-01-06T09:45:43;35.33;;;27.05;;
51298;SDS011;37382;45.192;9.790;2024-01-06T09:48:26;32.35;;;26.30;;
51298;SDS011;37382;45.192;9.790;2024-01-06T09:51:01;33.60;;;24.40;;
51298;SDS011;37382;45.192;9.790;2024-01-06T09:53:33;27.52;;;21.60;;
51298;SDS011;37382;45.192;9.790;2024-01-06T09:56:03;28.45;;;21.17;;
51298;SDS011;37382;45.192;9.790;2024-01-06T09:58:32;33.03;;;25.35;;
51298;SDS011;37382;45.192;9.790;2024-01-06T10:01:02;27.85;;;22.00;;
51298;SDS011;37382;45.192;9.790;2024-01-06T10:03:30;28.58;;;22.05;;
51298;SDS011;37382;45.192;9.790;2024-01-06T10:05:58;30.15;;;24.33;;
51298;SDS011;37382;45.192;9.790;2024-01-06T10:08:30;30.05;;;24.85;;
51298;SDS011;37382;45.192;9.790;2024-01-06T10:11:02;27.50;;;20.95;;
51298;SDS011;37382;45.192;9.790;2024-01-06T10:13:29;24.92;;;19.60;;
51298;SDS011;37382;45.192;9.790;2024-01-06T10:15:56;28.45;;;22.85;;
51298;SDS011;37382;45.192;9.790;2024-01-06T10:18:25;27.40;;;20.88;;
51298;SDS011;37382;45.192;9.790;2024-01-06T10:20:54;29.15;;;21.05;;
51298;SDS011;37382;45.192;9.790;2024-01-06T10:23:22;24.67;;;18.52;;
51298;SDS011;37382;45.192;9.790;2024-01-06T10:25:54;28.40;;;21.83;;
51298;SDS011;37382;45.192;9.790;2024-01-06T10:28:25;25.60;;;19.45;;
51298;SDS011;37382;45.192;9.790;2024-01-06T10:30:53;22.77;;;17.70;;
51298;SDS011;37382;45.192;9.790;2024-01-06T10:33:22;23.70;;;18.27;;
51298;SDS011;37382;45.192;9.790;2024-01-06T10:35:50;23.02;;;17.73;;
51298;SDS011;37382;45.192;9.790;2024-01-06T10:38:19;19.73;;;17.10;;
51298;SDS011;37382;45.192;9.790;2024-01-06T10:40:56;25.10;;;19.63;;
51298;SDS011;37382;45.192;9.790;2024-01-06T10:43:30;22.42;;;17.48;;
51298;SDS011;37382;45.192;9.790;2024-01-06T10:46:03;24.30;;;17.85;;
51298;SDS011;37382;45.192;9.790;2024-01-06T10:48:32;21.25;;;17.65;;
51298;SDS011;37382;45.192;9.790;2024-01-06T10:51:01;21.98;;;17.65;;
51298;SDS011;37382;45.192;9.790;2024-01-06T10:53:29;20.98;;;17.40;;
51298;SDS011;37382;45.192;9.790;2024-01-06T10:55:58;20.65;;;15.95;;
51298;SDS011;37382;45.192;9.790;2024-01-06T10:58:27;20.63;;;17.48;;
51298;SDS011;37382;45.192;9.790;2024-01-06T11:00:56;22.63;;;17.98;;
51298;SDS011;37382;45.192;9.790;2024-01-06T11:03:24;26.13;;;21.65;;
51298;SDS011;37382;45.192;9.790;2024-01-06T11:05:52;19.80;;;17.00;;
51298;SDS011;37382;45.192;9.790;2024-01-06T11:08:19;29.55;;;23.10;;
51298;SDS011;37382;45.192;9.790;2024-01-06T11:10:49;41.78;;;31.02;;
51298;SDS011;37382;45.192;9.790;2024-01-06T11:13:21;28.60;;;23.13;;
51298;SDS011;37382;45.192;9.790;2024-01-06T11:15:50;22.55;;;18.70;;
51298;SDS011;37382;45.192;9.790;2024-01-06T11:18:35;24.80;;;20.48;;
51298;SDS011;37382;45.192;9.790;2024-01-06T11:23:44;21.15;;;18.83;;
51298;SDS011;37382;45.192;9.790;2024-01-06T11:26:13;23.58;;;18.95;;
51298;SDS011;37382;45.192;9.790;2024-01-06T11:28:44;19.83;;;17.52;;
51298;SDS011;37382;45.192;9.790;2024-01-06T11:31:15;20.63;;;17.05;;
51298;SDS011;37382;45.192;9.790;2024-01-06T11:33:43;24.02;;;18.83;;
51298;SDS011;37382;45.192;9.790;2024-01-06T11:36:11;24.20;;;18.42;;
51298;SDS011;37382;45.192;9.790;2024-01-06T11:38:42;21.55;;;17.92;;
51298;SDS011;37382;45.192;9.790;2024-01-06T11:41:44;18.90;;;16.40;;
51298;SDS011;37382;45.192;9.790;2024-01-06T11:44:18;21.33;;;17.88;;
51298;SDS011;37382;45.192;9.790;2024-01-06T11:46:47;21.25;;;18.92;;
51298;SDS011;37382;45.192;9.790;2024-01-06T11:49:19;22.63;;;18.58;;
51298;SDS011;37382;45.192;9.790;2024-01-06T11:51:48;22.17;;;18.33;;
51298;SDS011;37382;45.192;9.790;2024-01-06T11:54:16;22.38;;;18.23;;
51298;SDS011;37382;45.192;9.790;2024-01-06T11:56:44;21.95;;;18.42;;
51298;SDS011;37382;45.192;9.790;2024-01-06T11:59:11;20.92;;;17.67;;
51298;SDS011;37382;45.192;9.790;2024-01-06T12:01:39;21.45;;;17.75;;
51298;SDS011;37382;45.192;9.790;2024-01-06T12:04:07;20.70;;;17.92;;
51298;SDS011;37382;45.192;9.790;2024-01-06T12:06:34;19.23;;;17.05;;
51298;SDS011;37382;45.192;9.790;2024-01-06T12:09:05;18.70;;;16.73;;
51298;SDS011;37382;45.192;9.790;2024-01-06T12:11:38;21.15;;;17.35;;
51298;SDS011;37382;45.192;9.790;2024-01-06T12:14:05;19.83;;;17.70;;
51298;SDS011;37382;45.192;9.790;2024-01-06T12:16:33;20.80;;;18.27;;
51298;SDS011;37382;45.192;9.790;2024-01-06T12:19:00;22.10;;;17.67;;
51298;SDS011;37382;45.192;9.790;2024-01-06T12:21:29;22.65;;;18.92;;
51298;SDS011;37382;45.192;9.790;2024-01-06T12:24:16;46.97;;;32.53;;
51298;SDS011;37382;45.192;9.790;2024-01-06T12:26:47;51.97;;;34.72;;
51298;SDS011;37382;45.192;9.790;2024-01-06T12:29:16;24.38;;;19.65;;
51298;SDS011;37382;45.192;9.790;2024-01-06T12:31:44;24.40;;;19.27;;
51298;SDS011;37382;45.192;9.790;2024-01-06T12:34:12;25.50;;;19.95;;
51298;SDS011;37382;45.192;9.790;2024-01-06T12:36:40;36.78;;;27.55;;
51298;SDS011;37382;45.192;9.790;2024-01-06T12:39:10;38.72;;;25.00;;
51298;SDS011;37382;45.192;9.790;2024-01-06T12:41:41;18.65;;;16.65;;
51298;SDS011;37382;45.192;9.790;2024-01-06T12:44:09;29.65;;;24.92;;
51298;SDS011;37382;45.192;9.790;2024-01-06T12:46:36;20.85;;;18.52;;
51298;SDS011;37382;45.192;9.790;2024-01-06T12:49:04;18.65;;;15.88;;
51298;SDS011;37382;45.192;9.790;2024-01-06T12:51:32;19.75;;;15.23;;
51298;SDS011;37382;45.192;9.790;2024-01-06T12:54:00;17.55;;;15.50;;
51298;SDS011;37382;45.192;9.790;2024-01-06T12:56:27;26.10;;;22.75;;
51298;SDS011;37382;45.192;9.790;2024-01-06T12:58:54;19.20;;;14.88;;
51298;SDS011;37382;45.192;9.790;2024-01-06T13:01:22;16.38;;;13.63;;
51298;SDS011;37382;45.192;9.790;2024-01-06T13:03:50;21.90;;;18.75;;
51298;SDS011;37382;45.192;9.790;2024-01-06T13:06:18;22.73;;;18.40;;
51298;SDS011;37382;45.192;9.790;2024-01-06T13:08:46;20.75;;;16.45;;
51298;SDS011;37382;45.192;9.790;2024-01-06T13:11:14;19.02;;;16.17;;
51298;SDS011;37382;45.192;9.790;2024-01-06T13:13:42;19.80;;;15.68;;
51298;SDS011;37382;45.192;9.790;2024-01-06T13:16:09;13.13;;;11.75;;
51298;SDS011;37382;45.192;9.790;2024-01-06T13:18:37;13.27;;;11.88;;
51298;SDS011;37382;45.192;9.790;2024-01-06T13:21:04;19.52;;;15.70;;
51298;SDS011;37382;45.192;9.790;2024-01-06T13:23:32;17.45;;;14.57;;
51298;SDS011;37382;45.192;9.790;2024-01-06T13:25:59;22.02;;;16.02;;
51298;SDS011;37382;45.192;9.790;2024-01-06T13:28:27;14.85;;;12.88;;
51298;SDS011;37382;45.192;9.790;2024-01-06T13:30:55;15.75;;;13.93;;
51298;SDS011;37382;45.192;9.790;2024-01-06T13:33:22;13.65;;;12.23;;
51298;SDS011;37382;45.192;9.790;2024-01-06T13:35:50;17.23;;;15.27;;
51298;SDS011;37382;45.192;9.790;2024-01-06T13:38:17;18.70;;;16.45;;
51298;SDS011;37382;45.192;9.790;2024-01-06T13:40:45;21.65;;;16.73;;
51298;SDS011;37382;45.192;9.790;2024-01-06T13:43:12;20.05;;;16.38;;
51298;SDS011;37382;45.192;9.790;2024-01-06T13:45:43;24.35;;;17.67;;
51298;SDS011;37382;45.192;9.790;2024-01-06T13:48:17;18.30;;;15.00;;
51298;SDS011;37382;45.192;9.790;2024-01-06T13:50:46;15.30;;;13.55;;
51298;SDS011;37382;45.192;9.790;2024-01-06T13:53:14;17.05;;;14.45;;
51298;SDS011;37382;45.192;9.790;2024-01-06T13:55:42;17.88;;;15.98;;
51298;SDS011;37382;45.192;9.790;2024-01-06T13:58:10;20.48;;;17.15;;
51298;SDS011;37382;45.192;9.790;2024-01-06T14:00:38;16.63;;;14.35;;
51298;SDS011;37382;45.192;9.790;2024-01-06T14:03:05;16.55;;;14.77;;
51298;SDS011;37382;45.192;9.790;2024-01-06T14:05:34;16.45;;;14.57;;
51298;SDS011;37382;45.192;9.790;2024-01-06T14:08:02;17.60;;;14.85;;
51298;SDS011;37382;45.192;9.790;2024-01-06T14:10:29;19.25;;;15.60;;
51298;SDS011;37382;45.192;9.790;2024-01-06T14:12:58;17.55;;;14.70;;
51298;SDS011;37382;45.192;9.790;2024-01-06T14:15:26;21.73;;;18.33;;
51298;SDS011;37382;45.192;9.790;2024-01-06T14:17:53;15.57;;;13.93;;
51298;SDS011;37382;45.192;9.790;2024-01-06T14:20:21;15.93;;;14.32;;
51298;SDS011;37382;45.192;9.790;2024-01-06T14:22:48;14.65;;;13.13;;
51298;SDS011;37382;45.192;9.790;2024-01-06T14:25:16;15.98;;;12.43;;
51298;SDS011;37382;45.192;9.790;2024-01-06T14:27:47;15.15;;;13.10;;
51298;SDS011;37382;45.192;9.790;2024-01-06T14:30:15;16.23;;;14.15;;
51298;SDS011;37382;45.192;9.790;2024-01-06T14:32:43;18.67;;;16.60;;
51298;SDS011;37382;45.192;9.790;2024-01-06T14:35:10;16.00;;;14.30;;